SHT19Q EGPD-EGLL
Flight info
| Callsign | SHT19Q |
|---|---|
| Flight time | N/A |
| Altitude | 38000 |
| Route | EPCAN DCT NEXUS DCT RIBEL DCT NUGRA |
| Aircraft | A320/M-SDE3FGHIRWY/LB1 |
Departure
| Time | 2026-05-03 20:43 |
|---|---|
| Airport | Aberdeen International Airport (EGPD) |
Arrival
| Time | N/A |
|---|---|
| Airport | London Heathrow Airport (EGLL) |
| Time | Latitude | Longitude | Altitude | Speed | Heading |
|---|---|---|---|---|---|
| 2026-05-03 20:38 | 57.20133 | -2.20173 | 247 ft | 0 kts | 338° |
| 2026-05-03 20:39 | 57.20156 | -2.20190 | 247 ft | 6 kts | 338° |
| 2026-05-03 20:39 | 57.20202 | -2.20224 | 247 ft | 8 kts | 339° |
| 2026-05-03 20:39 | 57.20266 | -2.20272 | 247 ft | 12 kts | 337° |
| 2026-05-03 20:39 | 57.20351 | -2.20335 | 247 ft | 13 kts | 339° |
| 2026-05-03 20:40 | 57.20437 | -2.20394 | 247 ft | 10 kts | 349° |
| 2026-05-03 20:40 | 57.20494 | -2.20346 | 247 ft | 9 kts | 26° |
| 2026-05-03 20:40 | 57.20564 | -2.20382 | 247 ft | 13 kts | 338° |
| 2026-05-03 20:40 | 57.20658 | -2.20451 | 247 ft | 16 kts | 338° |
| 2026-05-03 20:41 | 57.20773 | -2.20536 | 247 ft | 18 kts | 338° |
| 2026-05-03 20:41 | 57.20873 | -2.20610 | 247 ft | 13 kts | 338° |
| 2026-05-03 20:41 | 57.20963 | -2.20672 | 247 ft | 12 kts | 347° |
| 2026-05-03 20:41 | 57.21007 | -2.20620 | 247 ft | 9 kts | 68° |
| 2026-05-03 20:42 | 57.21032 | -2.20489 | 248 ft | 9 kts | 69° |
| 2026-05-03 20:42 | 57.21029 | -2.20392 | 248 ft | 8 kts | 145° |
| 2026-05-03 20:42 | 57.21007 | -2.20377 | 248 ft | 0 kts | 158° |
| 2026-05-03 20:43 | 57.20839 | -2.20253 | 247 ft | 64 kts | 158° |
| 2026-05-03 20:43 | 57.20218 | -2.19792 | 250 ft | 125 kts | 158° |
| 2026-05-03 20:43 | 57.19357 | -2.19155 | 699 ft | 132 kts | 159° |
| 2026-05-03 20:43 | 57.18501 | -2.18535 | 1337 ft | 133 kts | 161° |
| 2026-05-03 20:44 | 57.17610 | -2.17889 | 1648 ft | 148 kts | 161° |
| 2026-05-03 20:44 | 57.16612 | -2.17137 | 1991 ft | 161 kts | 158° |
| 2026-05-03 20:44 | 57.15507 | -2.16296 | 2278 ft | 185 kts | 159° |
| 2026-05-03 20:44 | 57.14232 | -2.15511 | 2728 ft | 201 kts | 170° |
| 2026-05-03 20:45 | 57.12777 | -2.15015 | 3138 ft | 225 kts | 171° |
| 2026-05-03 20:45 | 57.11177 | -2.14469 | 3629 ft | 249 kts | 171° |
| 2026-05-03 20:45 | 57.09393 | -2.13856 | 4250 ft | 269 kts | 171° |
| 2026-05-03 20:45 | 57.07525 | -2.13215 | 5166 ft | 277 kts | 171° |
| 2026-05-03 20:46 | 57.05616 | -2.12558 | 6149 ft | 281 kts | 172° |
| 2026-05-03 20:46 | 57.03680 | -2.11894 | 7107 ft | 285 kts | 172° |
| 2026-05-03 20:46 | 57.01723 | -2.11224 | 8069 ft | 287 kts | 172° |
| 2026-05-03 20:46 | 56.99745 | -2.10553 | 9039 ft | 290 kts | 171° |
| 2026-05-03 20:47 | 56.97751 | -2.09880 | 9989 ft | 293 kts | 171° |
| 2026-05-03 20:47 | 56.95683 | -2.09185 | 10452 ft | 313 kts | 171° |
| 2026-05-03 20:47 | 56.93461 | -2.08441 | 10785 ft | 334 kts | 171° |
| 2026-05-03 20:47 | 56.91142 | -2.07660 | 11440 ft | 342 kts | 171° |
| 2026-05-03 20:48 | 56.88786 | -2.06860 | 12195 ft | 346 kts | 171° |
| 2026-05-03 20:48 | 56.86399 | -2.06052 | 12971 ft | 350 kts | 172° |
| 2026-05-03 20:48 | 56.83990 | -2.05237 | 13752 ft | 355 kts | 172° |
| 2026-05-03 20:48 | 56.81549 | -2.04417 | 14443 ft | 358 kts | 172° |
| 2026-05-03 20:49 | 56.79082 | -2.03594 | 15122 ft | 362 kts | 172° |
| 2026-05-03 20:49 | 56.76603 | -2.02767 | 15793 ft | 365 kts | 172° |
| 2026-05-03 20:49 | 56.74275 | -2.01987 | 16418 ft | 369 kts | 172° |
| 2026-05-03 20:49 | 56.71738 | -2.01134 | 17099 ft | 372 kts | 172° |
| 2026-05-03 20:50 | 56.69178 | -2.00274 | 17785 ft | 375 kts | 172° |
| 2026-05-03 20:50 | 56.66599 | -1.99412 | 18457 ft | 379 kts | 172° |
| 2026-05-03 20:50 | 56.64032 | -1.98555 | 19061 ft | 382 kts | 172° |
| 2026-05-03 20:50 | 56.61599 | -1.97747 | 19644 ft | 385 kts | 172° |
| 2026-05-03 20:51 | 56.59708 | -1.97122 | 20094 ft | 388 kts | 172° |
| 2026-05-03 20:51 | 56.57041 | -1.96242 | 20716 ft | 391 kts | 172° |
| 2026-05-03 20:51 | 56.54349 | -1.95352 | 21318 ft | 395 kts | 171° |
| 2026-05-03 20:51 | 56.51642 | -1.94455 | 21931 ft | 398 kts | 171° |
| 2026-05-03 20:52 | 56.48903 | -1.93553 | 22529 ft | 401 kts | 171° |
| 2026-05-03 20:52 | 56.46149 | -1.92647 | 23121 ft | 404 kts | 171° |
| 2026-05-03 20:52 | 56.43374 | -1.91732 | 23688 ft | 407 kts | 171° |
| 2026-05-03 20:52 | 56.40575 | -1.90810 | 24135 ft | 410 kts | 171° |
| 2026-05-03 20:53 | 56.37753 | -1.89882 | 24576 ft | 414 kts | 171° |
| 2026-05-03 20:53 | 56.34902 | -1.88948 | 24991 ft | 418 kts | 170° |
| 2026-05-03 20:53 | 56.32017 | -1.88007 | 25402 ft | 422 kts | 170° |
| 2026-05-03 20:53 | 56.29110 | -1.87060 | 25811 ft | 426 kts | 170° |
| 2026-05-03 20:54 | 56.26179 | -1.86107 | 26228 ft | 430 kts | 170° |
| 2026-05-03 20:54 | 56.20202 | -1.84834 | 27007 ft | 437 kts | 181° |
| 2026-05-03 20:54 | 56.17166 | -1.85310 | 27394 ft | 440 kts | 187° |
| 2026-05-03 20:55 | 56.14113 | -1.85972 | 27775 ft | 444 kts | 187° |
| 2026-05-03 20:55 | 56.11035 | -1.86639 | 28137 ft | 447 kts | 187° |
| 2026-05-03 20:55 | 56.07929 | -1.87313 | 28518 ft | 451 kts | 187° |
| 2026-05-03 20:55 | 56.04802 | -1.87987 | 28879 ft | 455 kts | 187° |
| 2026-05-03 20:56 | 56.01681 | -1.88646 | 29232 ft | 458 kts | 186° |
| 2026-05-03 20:56 | 55.98464 | -1.89319 | 29589 ft | 462 kts | 186° |
| 2026-05-03 20:56 | 55.95300 | -1.89982 | 29938 ft | 466 kts | 186° |
| 2026-05-03 20:56 | 55.92025 | -1.90671 | 30258 ft | 469 kts | 186° |
| 2026-05-03 20:57 | 55.88816 | -1.91345 | 30579 ft | 471 kts | 186° |
| 2026-05-03 20:57 | 55.85554 | -1.92034 | 30927 ft | 473 kts | 187° |
| 2026-05-03 20:57 | 55.82283 | -1.92725 | 31284 ft | 474 kts | 187° |
| 2026-05-03 20:57 | 55.79018 | -1.93410 | 31770 ft | 471 kts | 187° |
| 2026-05-03 20:58 | 55.75772 | -1.94092 | 32300 ft | 467 kts | 187° |
| 2026-05-03 20:58 | 55.72567 | -1.94763 | 32961 ft | 460 kts | 187° |
| 2026-05-03 20:58 | 55.69405 | -1.95423 | 33561 ft | 455 kts | 188° |
| 2026-05-03 20:58 | 55.66272 | -1.96076 | 34085 ft | 453 kts | 188° |